Time;durP1;ratioP1;P1;durP2;ratioP2;P2;SDS_P1;SDS_P2;PMS_P1;PMS_P2;Temp;Humidity;BMP_temperature;BMP_pressure;BME280_temperature;BME280_humidity;BME280_pressure;Samples;Min_cycle;Max_cycle;Signal;HPM_P1;HPM_P2
2021/04/12 15:31:26;;;;;;;76.22;43.20;;;;;;;17.28;51.67;102765.28;5024314;27;814178;-69
2021/04/12 15:34:00;;;;;;;70.90;41.15;;;;;;;17.42;51.00;102766.94;5043970;28;20034;-68
2021/04/12 15:36:45;;;;;;;58.10;35.80;;;;;;;17.55;51.04;102766.00;4942926;28;20054;-68
2021/04/12 15:39:25;;;;;;;38.28;24.58;;;;;;;17.63;49.84;102766.25;5044198;28;20020;-67
2021/04/12 15:41:55;;;;;;;46.00;27.20;;;;;;;17.91;51.26;102772.22;5029019;28;20095;-67
2021/04/12 15:44:30;;;;;;;45.05;27.27;;;;;;;18.12;52.19;102771.56;5028425;28;20030;-66
2021/04/12 15:47:01;;;;;;;47.42;26.75;;;;;;;18.34;52.96;102774.25;5028119;28;20215;-66
2021/04/12 15:49:37;;;;;;;46.95;26.30;;;;;;;18.56;53.44;102769.81;5041275;28;20116;-66
2021/04/12 15:52:19;;;;;;;45.05;25.25;;;;;;;18.81;53.65;102772.34;5027917;28;20037;-66
2021/04/12 15:55:08;;;;;;;42.75;25.85;;;;;;;19.02;54.19;102775.16;5036993;28;20322;-66
2021/04/12 15:57:35;;;;;;;43.67;23.83;;;;;;;19.28;53.09;102774.84;5047650;28;20455;-67
2021/04/12 16:00:20;;;;;;;41.92;24.08;;;;;;;19.40;53.84;102773.78;5046387;28;20025;-66
2021/04/12 16:02:52;;;;;;;38.65;23.55;;;;;;;19.52;53.36;102776.47;5047802;28;20037;-66
2021/04/12 16:05:24;;;;;;;38.88;23.02;;;;;;;19.61;52.80;102778.38;5047814;28;20075;-68
2021/04/12 16:07:52;;;;;;;36.38;21.58;;;;;;;19.67;52.88;102780.56;5047657;28;20025;-68
2021/04/12 16:10:26;;;;;;;39.92;23.20;;;;;;;19.72;52.89;102786.47;5047304;28;20105;-69
2021/04/12 16:12:51;;;;;;;36.08;22.58;;;;;;;19.81;52.82;102783.97;5047672;28;20083;-69
2021/04/12 16:15:22;;;;;;;36.90;20.70;;;;;;;19.86;53.08;102787.13;5062785;28;20025;-70
2021/04/12 16:17:56;;;;;;;29.70;18.30;;;;;;;19.85;51.47;102788.13;5046927;28;20029;-70
2021/04/12 16:20:33;;;;;;;28.67;16.77;;;;;;;19.87;52.40;102789.69;5046996;28;20032;-68
2021/04/12 16:23:12;;;;;;;26.88;17.20;;;;;;;19.88;51.81;102793.28;5047460;28;20041;-69
2021/04/12 16:25:56;;;;;;;26.13;16.83;;;;;;;19.84;51.97;102792.69;5048133;28;20101;-68
2021/04/12 16:28:58;;;;;;;22.92;13.90;;;;;;;19.87;52.68;102788.84;5050487;28;20117;-69
2021/04/12 16:31:31;;;;;;;26.40;14.57;;;;;;;19.83;52.12;102787.41;5020014;28;20140;-74
2021/04/12 16:34:00;;;;;;;24.08;14.68;;;;;;;19.83;52.33;102799.13;5051641;28;20129;-73
2021/04/12 16:36:51;;;;;;;26.00;16.25;;;;;;;19.85;53.53;102794.41;5048309;28;20500;-72
2021/04/12 16:39:26;;;;;;;24.52;14.60;;;;;;;19.83;52.88;102801.00;5048796;28;20067;-71
2021/04/12 16:42:02;;;;;;;22.40;14.25;;;;;;;19.82;53.28;102807.41;5037604;28;20120;-71
2021/04/12 16:44:34;;;;;;;21.45;13.25;;;;;;;19.81;52.69;102808.41;5050051;28;20075;-73
2021/04/12 16:47:04;;;;;;;21.38;12.90;;;;;;;19.80;52.79;102812.97;5034374;28;20033;-73
2021/04/12 16:49:58;;;;;;;21.00;13.38;;;;;;;19.81;53.98;102813.84;5033194;28;20108;-71
2021/04/12 16:52:34;;;;;;;25.85;13.07;;;;;;;19.79;53.78;102819.41;5013859;28;20554;-72
2021/04/12 16:55:16;;;;;;;22.55;13.48;;;;;;;19.79;55.57;102813.97;5025250;28;20080;-73
2021/04/12 16:57:50;;;;;;;22.27;13.75;;;;;;;19.78;56.13;102818.50;5033764;28;20033;-72
2021/04/12 17:00:18;;;;;;;21.67;12.95;;;;;;;19.76;56.90;102822.38;5033593;28;20048;-72
2021/04/12 17:02:57;;;;;;;20.40;12.13;;;;;;;19.73;57.07;102815.34;5033223;28;20115;-72
2021/04/12 17:05:39;;;;;;;20.95;11.57;;;;;;;19.72;56.40;102829.91;5033000;28;20033;-72
2021/04/12 17:08:06;;;;;;;19.95;11.63;;;;;;;19.65;57.12;102824.16;5031473;28;20364;-74
2021/04/12 17:10:38;;;;;;;21.38;11.32;;;;;;;19.65;56.73;102817.84;5033068;28;20029;-74
2021/04/12 17:13:20;;;;;;;17.20;10.85;;;;;;;19.65;57.47;102824.16;5031939;28;20056;-77
2021/04/12 17:15:55;;;;;;;19.83;11.50;;;;;;;19.60;56.63;102822.81;5033566;28;20333;-77
2021/04/12 17:18:27;;;;;;;20.08;11.73;;;;;;;19.59;56.63;102821.09;5033441;28;20025;-77
2021/04/12 17:21:09;;;;;;;22.30;11.02;;;;;;;19.60;56.89;102825.53;5033360;28;20026;-77
2021/04/12 17:23:44;;;;;;;18.65;10.88;;;;;;;19.58;56.93;102827.53;5028570;28;20389;-77
2021/04/12 17:26:11;;;;;;;17.55;11.35;;;;;;;19.54;57.38;102826.06;5011865;28;20026;-78
2021/04/12 17:28:46;;;;;;;18.75;10.43;;;;;;;19.52;57.14;102830.78;5013364;28;20021;-77
2021/04/12 17:31:20;;;;;;;18.27;10.45;;;;;;;19.50;57.27;102830.88;5013091;28;20058;-76
2021/04/12 17:33:55;;;;;;;16.70;10.63;;;;;;;19.46;56.99;102830.31;5012204;28;20088;-78
2021/04/12 17:36:32;;;;;;;18.83;9.88;;;;;;;19.46;57.32;102833.03;5011715;28;20121;-77
2021/04/12 17:39:09;;;;;;;16.83;10.05;;;;;;;19.45;57.31;102841.28;5013501;28;20026;-77
2021/04/12 17:41:50;;;;;;;15.88;9.70;;;;;;;19.40;56.92;102844.38;5011650;28;20399;-79
2021/04/12 17:44:19;;;;;;;15.63;8.75;;;;;;;19.33;55.94;102843.16;5012194;28;20486;-78
2021/04/12 17:47:02;;;;;;;14.32;9.05;;;;;;;19.32;56.87;102850.47;5013001;28;20083;-79
2021/04/12 17:49:45;;;;;;;13.48;8.85;;;;;;;19.25;56.68;102857.38;5043196;28;20030;-79
2021/04/12 17:52:27;;;;;;;14.68;8.85;;;;;;;19.24;56.92;102852.94;5010682;28;20515;-78
2021/04/12 17:55:15;;;;;;;15.80;8.65;;;;;;;19.24;57.03;102860.22;5022080;28;20064;-78
2021/04/12 17:57:49;;;;;;;14.60;9.00;;;;;;;19.18;57.03;102862.47;5031047;28;20061;-84
2021/04/12 18:00:21;;;;;;;13.68;8.32;;;;;;;19.20;56.50;102865.03;5031099;28;20022;-76
2021/04/12 18:02:50;;;;;;;14.20;7.78;;;;;;;19.15;56.49;102870.88;5032388;28;20367;-76
2021/04/12 18:05:29;;;;;;;14.65;8.13;;;;;;;19.18;56.45;102878.75;5022745;28;20087;-76
2021/04/12 18:08:05;;;;;;;11.52;8.02;;;;;;;19.17;56.42;102877.03;5013849;28;20025;-77
2021/04/12 18:10:34;;;;;;;13.38;8.02;;;;;;;19.17;56.20;102873.44;5026746;28;20037;-76
2021/04/12 18:13:03;;;;;;;12.70;7.63;;;;;;;19.16;56.31;102878.00;5032068;28;20029;-77
2021/04/12 18:15:41;;;;;;;13.65;8.07;;;;;;;19.18;56.19;102884.19;5030706;28;20396;-77
2021/04/12 18:18:23;;;;;;;11.63;6.78;;;;;;;19.09;54.06;102879.47;5032321;28;20092;-76
2021/04/12 18:21:09;;;;;;;11.75;7.10;;;;;;;19.12;54.99;102883.81;5031827;28;20033;-75
2021/04/12 18:23:37;;;;;;;14.80;7.05;;;;;;;19.10;54.49;102894.81;5025149;28;20021;-77
2021/04/12 18:26:28;;;;;;;10.70;6.70;;;;;;;19.13;55.64;102889.13;5023328;28;20033;-75
2021/04/12 18:28:55;;;;;;;13.13;6.35;;;;;;;19.14;54.98;102888.13;5024867;28;20388;-76
2021/04/12 18:31:33;;;;;;;10.73;6.72;;;;;;;19.15;55.18;102886.28;5024500;28;20056;-78
2021/04/12 18:33:58;;;;;;;11.73;6.60;;;;;;;19.16;54.88;102894.31;5024838;28;20033;-80
2021/04/12 18:36:37;;;;;;;10.60;6.93;;;;;;;19.20;54.75;102901.19;5024315;28;20040;-79
2021/04/12 18:39:24;;;;;;;10.93;6.88;;;;;;;19.23;55.64;102899.22;5024522;28;20186;-77
2021/04/12 18:41:58;;;;;;;9.80;5.70;;;;;;;19.21;55.05;102900.19;5009527;28;20461;-77
2021/04/12 18:44:37;;;;;;;10.52;6.10;;;;;;;19.24;54.65;102904.50;5019341;28;20025;-83
2021/04/12 18:47:11;;;;;;;9.52;6.53;;;;;;;19.24;54.63;102912.63;5021366;28;20400;-80
2021/04/12 18:50:05;;;;;;;8.90;5.80;;;;;;;19.26;55.54;102907.09;5013187;28;20026;-76
2021/04/12 18:52:35;;;;;;;9.52;6.10;;;;;;;19.24;54.73;102911.78;5027684;28;20033;-81
2021/04/12 18:55:05;;;;;;;10.85;5.85;;;;;;;19.20;53.18;102913.88;5027916;28;20059;-79
2021/04/12 18:58:09;;;;;;;9.35;5.07;;;;;;;19.16;52.73;102917.84;5031106;28;20025;-80
